sensor_id;sensor_type;location;lat;lon;timestamp;temperature;humidity
24744;DHT22;12844;52.110;5.548;2023-11-21T00:00:37;19.40;57.10
24744;DHT22;12844;52.110;5.548;2023-11-21T00:03:03;19.50;57.20
24744;DHT22;12844;52.110;5.548;2023-11-21T00:05:29;19.50;57.10
24744;DHT22;12844;52.110;5.548;2023-11-21T00:18:16;19.40;56.80
24744;DHT22;12844;52.110;5.548;2023-11-21T00:20:42;19.40;56.90
24744;DHT22;12844;52.110;5.548;2023-11-21T00:23:07;19.50;56.80
24744;DHT22;12844;52.110;5.548;2023-11-21T00:25:34;19.40;56.70
24744;DHT22;12844;52.110;5.548;2023-11-21T00:28:00;19.40;56.60
24744;DHT22;12844;52.110;5.548;2023-11-21T00:30:27;19.40;56.60
24744;DHT22;12844;52.110;5.548;2023-11-21T00:32:53;19.40;56.50
24744;DHT22;12844;52.110;5.548;2023-11-21T00:35:18;19.40;56.50
24744;DHT22;12844;52.110;5.548;2023-11-21T00:40:19;19.40;56.40
24744;DHT22;12844;52.110;5.548;2023-11-21T00:42:46;19.40;56.30
24744;DHT22;12844;52.110;5.548;2023-11-21T00:45:12;19.40;56.30
24744;DHT22;12844;52.110;5.548;2023-11-21T00:47:38;19.40;56.30
24744;DHT22;12844;52.110;5.548;2023-11-21T00:50:04;19.40;56.30
24744;DHT22;12844;52.110;5.548;2023-11-21T00:52:31;19.40;56.30
24744;DHT22;12844;52.110;5.548;2023-11-21T00:54:57;19.40;56.30
24744;DHT22;12844;52.110;5.548;2023-11-21T00:57:24;19.30;56.20
24744;DHT22;12844;52.110;5.548;2023-11-21T00:59:50;19.30;56.20
24744;DHT22;12844;52.110;5.548;2023-11-21T01:02:15;19.30;56.20
24744;DHT22;12844;52.110;5.548;2023-11-21T01:04:41;19.30;56.20
24744;DHT22;12844;52.110;5.548;2023-11-21T01:07:07;19.30;56.20
24744;DHT22;12844;52.110;5.548;2023-11-21T01:09:32;19.30;56.20
24744;DHT22;12844;52.110;5.548;2023-11-21T01:11:58;19.30;56.20
24744;DHT22;12844;52.110;5.548;2023-11-21T01:14:25;19.30;56.20
24744;DHT22;12844;52.110;5.548;2023-11-21T01:16:52;19.30;56.20
24744;DHT22;12844;52.110;5.548;2023-11-21T01:19:17;19.30;56.20
24744;DHT22;12844;52.110;5.548;2023-11-21T01:21:43;19.30;56.20
24744;DHT22;12844;52.110;5.548;2023-11-21T01:24:09;19.20;56.20
24744;DHT22;12844;52.110;5.548;2023-11-21T01:26:34;19.30;56.20
24744;DHT22;12844;52.110;5.548;2023-11-21T01:29:00;19.20;56.20
24744;DHT22;12844;52.110;5.548;2023-11-21T01:31:25;19.20;56.20
24744;DHT22;12844;52.110;5.548;2023-11-21T01:33:54;19.20;56.20
24744;DHT22;12844;52.110;5.548;2023-11-21T01:36:20;19.20;56.20
24744;DHT22;12844;52.110;5.548;2023-11-21T01:38:46;19.20;56.20
24744;DHT22;12844;52.110;5.548;2023-11-21T01:41:14;19.20;56.30
24744;DHT22;12844;52.110;5.548;2023-11-21T01:43:40;19.20;56.30
24744;DHT22;12844;52.110;5.548;2023-11-21T01:46:06;19.10;56.20
24744;DHT22;12844;52.110;5.548;2023-11-21T01:48:33;19.10;56.30
24744;DHT22;12844;52.110;5.548;2023-11-21T01:51:00;19.10;56.30
24744;DHT22;12844;52.110;5.548;2023-11-21T01:53:26;19.10;56.30
24744;DHT22;12844;52.110;5.548;2023-11-21T01:55:53;19.10;56.30
24744;DHT22;12844;52.110;5.548;2023-11-21T01:58:21;19.10;56.30
24744;DHT22;12844;52.110;5.548;2023-11-21T02:00:47;19.10;56.30
24744;DHT22;12844;52.110;5.548;2023-11-21T02:03:15;19.00;56.30
24744;DHT22;12844;52.110;5.548;2023-11-21T02:05:42;19.00;56.30
24744;DHT22;12844;52.110;5.548;2023-11-21T02:08:07;19.00;56.30
24744;DHT22;12844;52.110;5.548;2023-11-21T02:10:34;19.00;56.30
24744;DHT22;12844;52.110;5.548;2023-11-21T02:13:02;19.00;56.40
24744;DHT22;12844;52.110;5.548;2023-11-21T02:15:28;19.00;56.40
24744;DHT22;12844;52.110;5.548;2023-11-21T02:17:55;19.00;56.40
24744;DHT22;12844;52.110;5.548;2023-11-21T02:20:21;19.00;56.40
24744;DHT22;12844;52.110;5.548;2023-11-21T02:22:53;19.00;56.40
24744;DHT22;12844;52.110;5.548;2023-11-21T02:25:29;19.00;56.50
24744;DHT22;12844;52.110;5.548;2023-11-21T02:27:55;19.00;56.40
24744;DHT22;12844;52.110;5.548;2023-11-21T02:30:24;19.00;56.50
24744;DHT22;12844;52.110;5.548;2023-11-21T02:32:53;18.90;56.50
24744;DHT22;12844;52.110;5.548;2023-11-21T02:35:20;18.90;56.50
24744;DHT22;12844;52.110;5.548;2023-11-21T02:37:47;18.90;56.50
24744;DHT22;12844;52.110;5.548;2023-11-21T02:40:12;18.90;56.60
24744;DHT22;12844;52.110;5.548;2023-11-21T02:42:41;18.90;56.50
24744;DHT22;12844;52.110;5.548;2023-11-21T02:45:07;18.90;56.50
24744;DHT22;12844;52.110;5.548;2023-11-21T02:47:33;18.90;56.50
24744;DHT22;12844;52.110;5.548;2023-11-21T02:49:59;18.90;56.50
24744;DHT22;12844;52.110;5.548;2023-11-21T02:52:25;18.90;56.60
24744;DHT22;12844;52.110;5.548;2023-11-21T02:54:50;18.90;56.50
24744;DHT22;12844;52.110;5.548;2023-11-21T02:57:16;18.80;56.50
24744;DHT22;12844;52.110;5.548;2023-11-21T02:59:42;18.80;56.50
24744;DHT22;12844;52.110;5.548;2023-11-21T03:02:07;18.80;56.60
24744;DHT22;12844;52.110;5.548;2023-11-21T03:04:34;18.80;56.50
24744;DHT22;12844;52.110;5.548;2023-11-21T03:07:00;18.80;56.50
24744;DHT22;12844;52.110;5.548;2023-11-21T03:09:26;18.80;56.50
24744;DHT22;12844;52.110;5.548;2023-11-21T03:11:53;18.80;57.20
24744;DHT22;12844;52.110;5.548;2023-11-21T03:14:18;18.80;56.60
24744;DHT22;12844;52.110;5.548;2023-11-21T03:16:44;18.80;56.60
24744;DHT22;12844;52.110;5.548;2023-11-21T03:19:11;18.80;56.60
24744;DHT22;12844;52.110;5.548;2023-11-21T03:21:36;18.80;56.60
24744;DHT22;12844;52.110;5.548;2023-11-21T03:24:02;18.70;56.60
24744;DHT22;12844;52.110;5.548;2023-11-21T03:26:28;18.80;56.60
24744;DHT22;12844;52.110;5.548;2023-11-21T03:28:55;18.80;56.60
24744;DHT22;12844;52.110;5.548;2023-11-21T03:31:21;18.80;56.70
24744;DHT22;12844;52.110;5.548;2023-11-21T03:33:46;18.80;56.60
24744;DHT22;12844;52.110;5.548;2023-11-21T03:36:13;18.70;56.60
24744;DHT22;12844;52.110;5.548;2023-11-21T03:38:40;18.70;56.60
24744;DHT22;12844;52.110;5.548;2023-11-21T03:41:06;18.70;56.60
24744;DHT22;12844;52.110;5.548;2023-11-21T03:43:31;18.70;56.50
24744;DHT22;12844;52.110;5.548;2023-11-21T03:45:57;18.70;56.50
24744;DHT22;12844;52.110;5.548;2023-11-21T03:48:22;18.70;56.60
24744;DHT22;12844;52.110;5.548;2023-11-21T03:50:48;18.70;56.60
24744;DHT22;12844;52.110;5.548;2023-11-21T03:53:14;18.70;56.60
24744;DHT22;12844;52.110;5.548;2023-11-21T03:55:39;18.70;56.60
24744;DHT22;12844;52.110;5.548;2023-11-21T03:58:05;18.70;56.50
24744;DHT22;12844;52.110;5.548;2023-11-21T04:00:31;18.70;56.50
24744;DHT22;12844;52.110;5.548;2023-11-21T04:02:56;18.70;56.60
24744;DHT22;12844;52.110;5.548;2023-11-21T04:05:23;18.70;56.60
24744;DHT22;12844;52.110;5.548;2023-11-21T04:07:52;18.70;56.60
24744;DHT22;12844;52.110;5.548;2023-11-21T04:10:17;18.70;56.60
24744;DHT22;12844;52.110;5.548;2023-11-21T04:12:43;18.70;56.60
24744;DHT22;12844;52.110;5.548;2023-11-21T04:15:11;18.70;56.60
24744;DHT22;12844;52.110;5.548;2023-11-21T04:17:37;18.70;56.60
24744;DHT22;12844;52.110;5.548;2023-11-21T04:20:04;18.70;56.60
24744;DHT22;12844;52.110;5.548;2023-11-21T04:22:33;18.60;56.60
24744;DHT22;12844;52.110;5.548;2023-11-21T04:24:59;18.60;56.60
24744;DHT22;12844;52.110;5.548;2023-11-21T04:27:24;18.60;56.60
24744;DHT22;12844;52.110;5.548;2023-11-21T04:29:50;18.60;56.70
24744;DHT22;12844;52.110;5.548;2023-11-21T04:32:16;18.60;56.70
24744;DHT22;12844;52.110;5.548;2023-11-21T04:34:41;18.60;56.70
24744;DHT22;12844;52.110;5.548;2023-11-21T04:37:07;18.60;56.70
24744;DHT22;12844;52.110;5.548;2023-11-21T04:39:32;18.60;56.70
24744;DHT22;12844;52.110;5.548;2023-11-21T04:41:58;18.60;56.80
24744;DHT22;12844;52.110;5.548;2023-11-21T04:44:23;18.60;56.70
24744;DHT22;12844;52.110;5.548;2023-11-21T04:46:49;18.60;56.70
24744;DHT22;12844;52.110;5.548;2023-11-21T04:49:14;18.60;56.70
24744;DHT22;12844;52.110;5.548;2023-11-21T04:51:40;18.50;56.70
24744;DHT22;12844;52.110;5.548;2023-11-21T04:54:06;18.50;56.70
24744;DHT22;12844;52.110;5.548;2023-11-21T04:56:31;18.50;56.70
24744;DHT22;12844;52.110;5.548;2023-11-21T04:58:57;18.50;56.80
24744;DHT22;12844;52.110;5.548;2023-11-21T05:01:22;18.50;56.80
24744;DHT22;12844;52.110;5.548;2023-11-21T05:03:48;18.50;56.70
24744;DHT22;12844;52.110;5.548;2023-11-21T05:06:14;18.50;56.70
24744;DHT22;12844;52.110;5.548;2023-11-21T05:08:40;18.50;56.80
24744;DHT22;12844;52.110;5.548;2023-11-21T05:11:06;18.50;56.80
24744;DHT22;12844;52.110;5.548;2023-11-21T05:13:34;18.50;56.80
24744;DHT22;12844;52.110;5.548;2023-11-21T05:15:59;18.50;56.80
24744;DHT22;12844;52.110;5.548;2023-11-21T05:18:25;18.50;56.80
24744;DHT22;12844;52.110;5.548;2023-11-21T05:20:55;18.50;56.80
24744;DHT22;12844;52.110;5.548;2023-11-21T05:23:21;18.50;56.80
24744;DHT22;12844;52.110;5.548;2023-11-21T05:25:46;18.50;56.80
24744;DHT22;12844;52.110;5.548;2023-11-21T05:28:13;18.50;56.80
24744;DHT22;12844;52.110;5.548;2023-11-21T05:30:39;18.50;57.40
24744;DHT22;12844;52.110;5.548;2023-11-21T05:33:05;18.50;56.80
24744;DHT22;12844;52.110;5.548;2023-11-21T05:35:31;18.50;56.80
24744;DHT22;12844;52.110;5.548;2023-11-21T05:37:56;18.40;56.80
24744;DHT22;12844;52.110;5.548;2023-11-21T05:40:22;18.50;56.90
24744;DHT22;12844;52.110;5.548;2023-11-21T05:42:48;18.50;56.80
24744;DHT22;12844;52.110;5.548;2023-11-21T05:45:14;18.40;56.80
24744;DHT22;12844;52.110;5.548;2023-11-21T05:47:42;18.50;56.80
24744;DHT22;12844;52.110;5.548;2023-11-21T05:50:09;18.40;56.80
24744;DHT22;12844;52.110;5.548;2023-11-21T05:52:38;18.40;56.80
24744;DHT22;12844;52.110;5.548;2023-11-21T05:55:05;18.40;56.80
24744;DHT22;12844;52.110;5.548;2023-11-21T05:57:33;18.40;56.90
24744;DHT22;12844;52.110;5.548;2023-11-21T05:59:59;18.40;56.90
24744;DHT22;12844;52.110;5.548;2023-11-21T06:02:24;18.40;56.90
24744;DHT22;12844;52.110;5.548;2023-11-21T06:04:51;18.40;56.90
24744;DHT22;12844;52.110;5.548;2023-11-21T06:07:16;18.40;56.90
24744;DHT22;12844;52.110;5.548;2023-11-21T06:09:42;18.40;56.90
24744;DHT22;12844;52.110;5.548;2023-11-21T06:12:10;18.40;56.90
24744;DHT22;12844;52.110;5.548;2023-11-21T06:14:35;18.30;56.80
24744;DHT22;12844;52.110;5.548;2023-11-21T06:17:02;18.30;56.90
24744;DHT22;12844;52.110;5.548;2023-11-21T06:19:27;18.30;56.90
24744;DHT22;12844;52.110;5.548;2023-11-21T06:21:53;18.30;56.90
24744;DHT22;12844;52.110;5.548;2023-11-21T06:24:18;18.30;56.90
24744;DHT22;12844;52.110;5.548;2023-11-21T06:26:46;18.30;56.90
24744;DHT22;12844;52.110;5.548;2023-11-21T06:29:13;18.40;56.90
24744;DHT22;12844;52.110;5.548;2023-11-21T06:31:39;18.40;56.90
24744;DHT22;12844;52.110;5.548;2023-11-21T06:34:06;18.30;56.90
24744;DHT22;12844;52.110;5.548;2023-11-21T06:36:32;18.30;56.90
24744;DHT22;12844;52.110;5.548;2023-11-21T06:38:57;18.40;56.90
24744;DHT22;12844;52.110;5.548;2023-11-21T06:41:23;18.30;56.90
24744;DHT22;12844;52.110;5.548;2023-11-21T06:43:49;18.30;56.90
24744;DHT22;12844;52.110;5.548;2023-11-21T06:46:14;18.40;57.50
24744;DHT22;12844;52.110;5.548;2023-11-21T06:48:42;18.30;56.90
24744;DHT22;12844;52.110;5.548;2023-11-21T06:51:08;18.30;56.90
24744;DHT22;12844;52.110;5.548;2023-11-21T06:53:33;18.30;56.90
24744;DHT22;12844;52.110;5.548;2023-11-21T06:55:59;18.30;57.00
24744;DHT22;12844;52.110;5.548;2023-11-21T06:58:25;18.30;57.00
24744;DHT22;12844;52.110;5.548;2023-11-21T07:00:50;18.30;57.00
24744;DHT22;12844;52.110;5.548;2023-11-21T07:03:17;18.30;57.10
24744;DHT22;12844;52.110;5.548;2023-11-21T07:05:44;18.30;57.10
24744;DHT22;12844;52.110;5.548;2023-11-21T07:08:10;18.20;57.00
24744;DHT22;12844;52.110;5.548;2023-11-21T07:10:36;18.20;57.00
24744;DHT22;12844;52.110;5.548;2023-11-21T07:13:02;18.20;57.00
24744;DHT22;12844;52.110;5.548;2023-11-21T07:15:28;18.20;57.00
24744;DHT22;12844;52.110;5.548;2023-11-21T07:17:53;18.20;57.00
24744;DHT22;12844;52.110;5.548;2023-11-21T07:20:19;18.20;57.10
24744;DHT22;12844;52.110;5.548;2023-11-21T07:22:45;18.20;57.10
24744;DHT22;12844;52.110;5.548;2023-11-21T07:25:11;18.30;57.20
24744;DHT22;12844;52.110;5.548;2023-11-21T07:27:37;18.20;57.00
24744;DHT22;12844;52.110;5.548;2023-11-21T07:30:03;18.20;57.10
24744;DHT22;12844;52.110;5.548;2023-11-21T07:32:31;18.20;57.10
24744;DHT22;12844;52.110;5.548;2023-11-21T07:34:56;18.20;57.10
24744;DHT22;12844;52.110;5.548;2023-11-21T07:37:23;18.20;57.10
24744;DHT22;12844;52.110;5.548;2023-11-21T07:39:49;18.20;57.10
24744;DHT22;12844;52.110;5.548;2023-11-21T07:42:14;18.20;57.10
24744;DHT22;12844;52.110;5.548;2023-11-21T07:44:40;18.20;57.10
24744;DHT22;12844;52.110;5.548;2023-11-21T07:47:06;18.20;57.10
24744;DHT22;12844;52.110;5.548;2023-11-21T07:49:31;18.20;57.00
24744;DHT22;12844;52.110;5.548;2023-11-21T07:51:57;18.30;57.20
24744;DHT22;12844;52.110;5.548;2023-11-21T07:54:22;18.30;57.40
24744;DHT22;12844;52.110;5.548;2023-11-21T07:56:48;18.50;57.30
24744;DHT22;12844;52.110;5.548;2023-11-21T07:59:14;18.50;57.10
24744;DHT22;12844;52.110;5.548;2023-11-21T08:01:40;18.80;57.00
24744;DHT22;12844;52.110;5.548;2023-11-21T08:04:06;19.00;56.80
24744;DHT22;12844;52.110;5.548;2023-11-21T08:06:32;19.20;56.50
24744;DHT22;12844;52.110;5.548;2023-11-21T08:08:58;19.50;56.20
24744;DHT22;12844;52.110;5.548;2023-11-21T08:11:24;19.70;55.80
24744;DHT22;12844;52.110;5.548;2023-11-21T08:13:51;19.90;55.60
24744;DHT22;12844;52.110;5.548;2023-11-21T08:16:17;20.00;55.30
24744;DHT22;12844;52.110;5.548;2023-11-21T08:18:42;20.10;55.20
24744;DHT22;12844;52.110;5.548;2023-11-21T08:21:08;20.20;54.80
24744;DHT22;12844;52.110;5.548;2023-11-21T08:23:34;20.30;54.20
24744;DHT22;12844;52.110;5.548;2023-11-21T08:26:00;20.30;54.10
24744;DHT22;12844;52.110;5.548;2023-11-21T08:28:27;20.30;54.40
24744;DHT22;12844;52.110;5.548;2023-11-21T08:30:53;20.30;54.50
24744;DHT22;12844;52.110;5.548;2023-11-21T08:33:19;20.30;54.60
24744;DHT22;12844;52.110;5.548;2023-11-21T08:35:45;20.30;54.60
24744;DHT22;12844;52.110;5.548;2023-11-21T08:38:11;20.20;54.70
24744;DHT22;12844;52.110;5.548;2023-11-21T08:40:37;20.20;54.80
24744;DHT22;12844;52.110;5.548;2023-11-21T08:43:03;20.30;55.00
24744;DHT22;12844;52.110;5.548;2023-11-21T08:45:30;20.30;55.20
24744;DHT22;12844;52.110;5.548;2023-11-21T08:47:56;20.20;55.30
24744;DHT22;12844;52.110;5.548;2023-11-21T08:50:22;20.20;55.30
24744;DHT22;12844;52.110;5.548;2023-11-21T08:52:48;20.20;55.30
24744;DHT22;12844;52.110;5.548;2023-11-21T08:55:14;20.20;56.00
24744;DHT22;12844;52.110;5.548;2023-11-21T08:57:40;20.20;55.50
24744;DHT22;12844;52.110;5.548;2023-11-21T09:00:10;20.20;55.60
24744;DHT22;12844;52.110;5.548;2023-11-21T09:02:43;20.20;55.80
24744;DHT22;12844;52.110;5.548;2023-11-21T09:05:12;20.20;55.90
24744;DHT22;12844;52.110;5.548;2023-11-21T09:07:40;20.30;55.90
24744;DHT22;12844;52.110;5.548;2023-11-21T09:10:07;20.40;55.70
24744;DHT22;12844;52.110;5.548;2023-11-21T09:12:33;20.50;55.60
24744;DHT22;12844;52.110;5.548;2023-11-21T09:15:05;20.70;55.10
24744;DHT22;12844;52.110;5.548;2023-11-21T09:17:32;20.80;55.30
24744;DHT22;12844;52.110;5.548;2023-11-21T09:19:57;20.90;55.00
24744;DHT22;12844;52.110;5.548;2023-11-21T09:22:23;21.00;54.80
24744;DHT22;12844;52.110;5.548;2023-11-21T09:24:50;21.10;54.70
24744;DHT22;12844;52.110;5.548;2023-11-21T09:27:16;21.10;54.60
24744;DHT22;12844;52.110;5.548;2023-11-21T09:29:42;21.10;54.70
24744;DHT22;12844;52.110;5.548;2023-11-21T09:32:08;21.10;54.80
24744;DHT22;12844;52.110;5.548;2023-11-21T09:34:37;21.00;54.80
24744;DHT22;12844;52.110;5.548;2023-11-21T09:37:07;21.00;54.90
24744;DHT22;12844;52.110;5.548;2023-11-21T09:39:33;21.00;55.10
24744;DHT22;12844;52.110;5.548;2023-11-21T09:42:23;21.00;55.00
24744;DHT22;12844;52.110;5.548;2023-11-21T09:45:03;21.00;55.00
24744;DHT22;12844;52.110;5.548;2023-11-21T09:47:32;20.90;55.00
24744;DHT22;12844;52.110;5.548;2023-11-21T09:50:01;20.80;55.20
24744;DHT22;12844;52.110;5.548;2023-11-21T09:52:28;20.80;55.30
24744;DHT22;12844;52.110;5.548;2023-11-21T09:54:55;20.80;55.40
24744;DHT22;12844;52.110;5.548;2023-11-21T09:57:24;20.70;55.50
24744;DHT22;12844;52.110;5.548;2023-11-21T09:59:54;20.70;55.50
24744;DHT22;12844;52.110;5.548;2023-11-21T10:02:26;20.70;55.60
24744;DHT22;12844;52.110;5.548;2023-11-21T10:04:54;20.60;55.60
24744;DHT22;12844;52.110;5.548;2023-11-21T10:07:20;20.50;56.30
24744;DHT22;12844;52.110;5.548;2023-11-21T10:09:47;20.50;55.70
24744;DHT22;12844;52.110;5.548;2023-11-21T10:12:16;20.50;55.80
24744;DHT22;12844;52.110;5.548;2023-11-21T10:14:42;20.50;55.80
24744;DHT22;12844;52.110;5.548;2023-11-21T10:17:10;20.50;55.80
24744;DHT22;12844;52.110;5.548;2023-11-21T10:19:39;20.40;55.80
24744;DHT22;12844;52.110;5.548;2023-11-21T10:22:05;20.40;55.90
24744;DHT22;12844;52.110;5.548;2023-11-21T10:24:32;20.30;55.90
24744;DHT22;12844;52.110;5.548;2023-11-21T10:26:58;20.30;56.00
24744;DHT22;12844;52.110;5.548;2023-11-21T10:29:29;20.30;55.90
24744;DHT22;12844;52.110;5.548;2023-11-21T10:31:55;20.30;56.10
24744;DHT22;12844;52.110;5.548;2023-11-21T10:34:24;20.30;56.10
24744;DHT22;12844;52.110;5.548;2023-11-21T10:36:49;20.30;56.20
24744;DHT22;12844;52.110;5.548;2023-11-21T10:39:19;20.20;56.20
24744;DHT22;12844;52.110;5.548;2023-11-21T10:41:49;20.20;56.20
24744;DHT22;12844;52.110;5.548;2023-11-21T10:44:19;20.20;56.30
24744;DHT22;12844;52.110;5.548;2023-11-21T10:46:53;20.10;56.30
24744;DHT22;12844;52.110;5.548;2023-11-21T10:49:24;20.20;56.50
24744;DHT22;12844;52.110;5.548;2023-11-21T10:51:50;20.10;56.40
24744;DHT22;12844;52.110;5.548;2023-11-21T10:54:22;20.10;56.60
24744;DHT22;12844;52.110;5.548;2023-11-21T10:56:50;20.10;56.80
24744;DHT22;12844;52.110;5.548;2023-11-21T10:59:17;20.10;56.70
24744;DHT22;12844;52.110;5.548;2023-11-21T11:01:44;20.00;56.70
24744;DHT22;12844;52.110;5.548;2023-11-21T11:04:12;20.00;56.80
24744;DHT22;12844;52.110;5.548;2023-11-21T11:06:48;20.00;56.80
24744;DHT22;12844;52.110;5.548;2023-11-21T11:09:17;20.00;56.90
24744;DHT22;12844;52.110;5.548;2023-11-21T11:11:43;20.00;56.90
24744;DHT22;12844;52.110;5.548;2023-11-21T11:14:13;19.90;56.80
24744;DHT22;12844;52.110;5.548;2023-11-21T11:16:40;19.90;56.80
24744;DHT22;12844;52.110;5.548;2023-11-21T11:19:11;19.90;56.70
24744;DHT22;12844;52.110;5.548;2023-11-21T11:24:44;19.90;56.70
24744;DHT22;12844;52.110;5.548;2023-11-21T11:35:31;19.80;56.70
24744;DHT22;12844;52.110;5.548;2023-11-21T11:37:58;19.80;56.90
24744;DHT22;12844;52.110;5.548;2023-11-21T11:40:38;19.80;56.90
24744;DHT22;12844;52.110;5.548;2023-11-21T11:43:06;19.80;56.80
24744;DHT22;12844;52.110;5.548;2023-11-21T11:45:33;19.80;56.90
24744;DHT22;12844;52.110;5.548;2023-11-21T11:48:01;19.70;56.80
24744;DHT22;12844;52.110;5.548;2023-11-21T11:50:27;19.70;56.80
24744;DHT22;12844;52.110;5.548;2023-11-21T11:52:53;19.70;56.80
24744;DHT22;12844;52.110;5.548;2023-11-21T11:55:22;19.70;56.80
24744;DHT22;12844;52.110;5.548;2023-11-21T11:57:58;19.70;56.80
24744;DHT22;12844;52.110;5.548;2023-11-21T12:02:56;19.70;56.80
24744;DHT22;12844;52.110;5.548;2023-11-21T12:05:27;19.70;56.80
24744;DHT22;12844;52.110;5.548;2023-11-21T12:08:03;19.70;56.90
24744;DHT22;12844;52.110;5.548;2023-11-21T12:10:30;19.70;56.90
24744;DHT22;12844;52.110;5.548;2023-11-21T12:15:23;19.60;56.90
24744;DHT22;12844;52.110;5.548;2023-11-21T12:17:49;19.60;56.90
24744;DHT22;12844;52.110;5.548;2023-11-21T12:20:19;19.60;56.90
24744;DHT22;12844;52.110;5.548;2023-11-21T12:22:52;19.60;56.90
24744;DHT22;12844;52.110;5.548;2023-11-21T12:25:20;19.60;56.90
24744;DHT22;12844;52.110;5.548;2023-11-21T12:27:50;19.60;56.90
24744;DHT22;12844;52.110;5.548;2023-11-21T12:30:17;19.60;56.90
24744;DHT22;12844;52.110;5.548;2023-11-21T12:32:47;19.60;57.00
24744;DHT22;12844;52.110;5.548;2023-11-21T12:35:13;19.60;57.00
24744;DHT22;12844;52.110;5.548;2023-11-21T12:37:40;19.60;57.00
24744;DHT22;12844;52.110;5.548;2023-11-21T12:40:06;19.60;57.10
24744;DHT22;12844;52.110;5.548;2023-11-21T12:46:04;19.60;57.20
24744;DHT22;12844;52.110;5.548;2023-11-21T16:37:39;19.10;57.30
24744;DHT22;12844;52.110;5.548;2023-11-21T16:40:05;19.10;57.50
24744;DHT22;12844;52.110;5.548;2023-11-21T16:42:33;19.10;57.80
24744;DHT22;12844;52.110;5.548;2023-11-21T16:45:00;19.20;58.30
24744;DHT22;12844;52.110;5.548;2023-11-21T16:47:25;19.30;58.30
24744;DHT22;12844;52.110;5.548;2023-11-21T17:56:34;21.00;56.20
24744;DHT22;12844;52.110;5.548;2023-11-21T18:22:13;20.60;56.80
24744;DHT22;12844;52.110;5.548;2023-11-21T18:24:38;20.60;56.70
24744;DHT22;12844;52.110;5.548;2023-11-21T18:27:05;20.50;56.70
24744;DHT22;12844;52.110;5.548;2023-11-21T18:29:31;20.50;56.70
24744;DHT22;12844;52.110;5.548;2023-11-21T18:31:57;20.50;56.70
24744;DHT22;12844;52.110;5.548;2023-11-21T18:34:22;20.50;56.70
24744;DHT22;12844;52.110;5.548;2023-11-21T18:36:49;20.50;56.80
24744;DHT22;12844;52.110;5.548;2023-11-21T18:39:16;20.50;56.90
24744;DHT22;12844;52.110;5.548;2023-11-21T18:41:43;20.40;56.80
24744;DHT22;12844;52.110;5.548;2023-11-21T18:44:09;20.50;56.90
24744;DHT22;12844;52.110;5.548;2023-11-21T18:46:39;20.40;56.90
24744;DHT22;12844;52.110;5.548;2023-11-21T18:49:06;20.40;57.00
24744;DHT22;12844;52.110;5.548;2023-11-21T18:51:32;20.40;57.10
24744;DHT22;12844;52.110;5.548;2023-11-21T18:53:59;20.40;57.10
24744;DHT22;12844;52.110;5.548;2023-11-21T18:56:24;20.40;57.10
24744;DHT22;12844;52.110;5.548;2023-11-21T18:58:52;20.40;57.20
24744;DHT22;12844;52.110;5.548;2023-11-21T19:01:28;20.40;57.30
24744;DHT22;12844;52.110;5.548;2023-11-21T19:03:54;20.30;57.20
24744;DHT22;12844;52.110;5.548;2023-11-21T19:06:21;20.30;57.30
24744;DHT22;12844;52.110;5.548;2023-11-21T19:08:47;20.30;57.50
24744;DHT22;12844;52.110;5.548;2023-11-21T19:11:13;20.30;58.00
24744;DHT22;12844;52.110;5.548;2023-11-21T19:13:38;20.40;58.00
24744;DHT22;12844;52.110;5.548;2023-11-21T19:16:04;20.60;57.80
24744;DHT22;12844;52.110;5.548;2023-11-21T19:18:31;20.70;57.90
24744;DHT22;12844;52.110;5.548;2023-11-21T19:20:57;20.90;57.70
24744;DHT22;12844;52.110;5.548;2023-11-21T19:23:29;21.10;57.40
24744;DHT22;12844;52.110;5.548;2023-11-21T19:25:54;21.30;57.00
24744;DHT22;12844;52.110;5.548;2023-11-21T19:28:20;21.40;56.70
24744;DHT22;12844;52.110;5.548;2023-11-21T19:30:45;21.50;56.60
24744;DHT22;12844;52.110;5.548;2023-11-21T19:33:11;21.60;56.30
24744;DHT22;12844;52.110;5.548;2023-11-21T19:35:37;21.60;56.10
24744;DHT22;12844;52.110;5.548;2023-11-21T19:38:05;21.60;55.70
24744;DHT22;12844;52.110;5.548;2023-11-21T19:40:30;21.70;55.60
24744;DHT22;12844;52.110;5.548;2023-11-21T19:42:59;21.70;55.60
24744;DHT22;12844;52.110;5.548;2023-11-21T19:45:25;21.70;55.40
24744;DHT22;12844;52.110;5.548;2023-11-21T19:47:54;21.60;55.20
24744;DHT22;12844;52.110;5.548;2023-11-21T19:50:19;21.60;55.20
24744;DHT22;12844;52.110;5.548;2023-11-21T19:52:45;21.60;55.30
24744;DHT22;12844;52.110;5.548;2023-11-21T19:55:10;21.50;55.30
24744;DHT22;12844;52.110;5.548;2023-11-21T19:57:37;21.50;55.50
24744;DHT22;12844;52.110;5.548;2023-11-21T20:00:06;21.50;55.80
24744;DHT22;12844;52.110;5.548;2023-11-21T20:02:37;21.40;55.90
24744;DHT22;12844;52.110;5.548;2023-11-21T20:05:02;21.40;56.00
24744;DHT22;12844;52.110;5.548;2023-11-21T20:07:28;21.40;56.10
24744;DHT22;12844;52.110;5.548;2023-11-21T20:09:57;21.30;56.10
24744;DHT22;12844;52.110;5.548;2023-11-21T20:12:23;21.30;56.10
24744;DHT22;12844;52.110;5.548;2023-11-21T20:14:49;21.30;56.20
24744;DHT22;12844;52.110;5.548;2023-11-21T20:17:14;21.20;56.10
24744;DHT22;12844;52.110;5.548;2023-11-21T20:19:44;21.20;56.20
24744;DHT22;12844;52.110;5.548;2023-11-21T20:22:10;21.20;56.20
24744;DHT22;12844;52.110;5.548;2023-11-21T20:24:35;21.10;56.30
24744;DHT22;12844;52.110;5.548;2023-11-21T20:27:05;21.10;56.30
24744;DHT22;12844;52.110;5.548;2023-11-21T20:29:31;21.10;56.40
24744;DHT22;12844;52.110;5.548;2023-11-21T20:31:57;21.00;56.40
24744;DHT22;12844;52.110;5.548;2023-11-21T20:34:23;21.00;56.40
24744;DHT22;12844;52.110;5.548;2023-11-21T20:36:49;21.00;56.50
24744;DHT22;12844;52.110;5.548;2023-11-21T20:39:15;21.00;56.60
24744;DHT22;12844;52.110;5.548;2023-11-21T20:41:41;20.90;56.60
24744;DHT22;12844;52.110;5.548;2023-11-21T20:44:08;20.90;56.70
24744;DHT22;12844;52.110;5.548;2023-11-21T20:46:39;20.80;56.80
24744;DHT22;12844;52.110;5.548;2023-11-21T20:49:08;20.90;56.80
24744;DHT22;12844;52.110;5.548;2023-11-21T20:51:33;20.80;56.80
24744;DHT22;12844;52.110;5.548;2023-11-21T20:54:00;20.80;56.80
24744;DHT22;12844;52.110;5.548;2023-11-21T20:57:07;20.80;56.90
24744;DHT22;12844;52.110;5.548;2023-11-21T20:59:43;20.80;56.90
24744;DHT22;12844;52.110;5.548;2023-11-21T21:02:09;20.70;57.00
24744;DHT22;12844;52.110;5.548;2023-11-21T21:04:35;20.70;57.00
24744;DHT22;12844;52.110;5.548;2023-11-21T21:07:01;20.70;57.10
24744;DHT22;12844;52.110;5.548;2023-11-21T21:09:27;20.70;57.10
24744;DHT22;12844;52.110;5.548;2023-11-21T21:11:53;20.70;57.10
24744;DHT22;12844;52.110;5.548;2023-11-21T21:14:18;20.70;57.10
24744;DHT22;12844;52.110;5.548;2023-11-21T21:16:44;20.70;57.20
24744;DHT22;12844;52.110;5.548;2023-11-21T21:19:10;20.60;57.10